Time;durP1;ratioP1;P1;durP2;ratioP2;P2;SDS_P1;SDS_P2;PMS_P1;PMS_P2;Temp;Humidity;BMP_temperature;BMP_pressure;BME280_temperature;BME280_humidity;BME280_pressure;Samples;Min_cycle;Max_cycle;Signal;HPM_P1;HPM_P2
2023/01/06 00:01:06;;;;;;;2.13;1.83;;;22.30;62.70;;;;;;4938437;29;20467;-71
2023/01/06 00:03:34;;;;;;;2.27;2.17;;;22.30;62.70;;;;;;4923983;29;20503;-72
2023/01/06 00:06:04;;;;;;;1.90;1.80;;;22.30;62.60;;;;;;4938262;29;20488;-71
2023/01/06 00:08:34;;;;;;;2.00;1.90;;;22.30;62.50;;;;;;4938360;29;20506;-71
2023/01/06 00:11:05;;;;;;;1.53;1.43;;;22.30;62.50;;;;;;4936939;29;20433;-72
2023/01/06 00:13:33;;;;;;;1.97;1.87;;;22.40;62.40;;;;;;4918629;29;20489;-72
2023/01/06 00:16:05;;;;;;;2.20;2.00;;;22.40;62.40;;;;;;4919544;29;20447;-71
2023/01/06 00:18:33;;;;;;;1.90;1.80;;;22.30;62.40;;;;;;4922910;29;21491;-71
2023/01/06 00:21:02;;;;;;;1.90;1.63;;;22.30;62.30;;;;;;4937208;29;20483;-71
2023/01/06 00:23:30;;;;;;;2.03;1.83;;;22.30;62.30;;;;;;4936824;29;20465;-71
2023/01/06 00:26:00;;;;;;;1.63;1.53;;;22.30;62.40;;;;;;4938183;29;21063;-71
2023/01/06 00:28:28;;;;;;;1.70;1.60;;;22.30;62.40;;;;;;4937739;29;20453;-71
2023/01/06 00:30:57;;;;;;;1.60;1.50;;;22.30;62.40;;;;;;4938521;29;20433;-71
2023/01/06 00:33:25;;;;;;;1.73;1.63;;;22.30;62.40;;;;;;4937571;29;20437;-71
2023/01/06 00:35:58;;;;;;;2.10;1.60;;;22.30;62.40;;;;;;4938069;29;20445;-71
2023/01/06 00:38:27;;;;;;;1.80;1.70;;;22.30;62.40;;;;;;4937807;29;20476;-71
2023/01/06 00:40:55;;;;;;;1.70;1.57;;;22.20;62.40;;;;;;4936067;29;20492;-71
2023/01/06 00:43:26;;;;;;;2.00;1.70;;;22.20;62.40;;;;;;4936921;29;20484;-76
2023/01/06 00:45:54;;;;;;;2.03;1.80;;;22.20;62.50;;;;;;4937866;29;20527;-71
2023/01/06 00:48:22;;;;;;;1.60;1.50;;;22.20;62.50;;;;;;4937663;29;20831;-72
2023/01/06 00:50:50;;;;;;;1.93;1.83;;;22.20;62.50;;;;;;4938257;29;20542;-71
2023/01/06 00:53:19;;;;;;;2.40;1.70;;;22.20;62.50;;;;;;4932900;29;20540;-72
2023/01/06 00:55:47;;;;;;;2.53;2.03;;;22.20;62.50;;;;;;4936616;29;20994;-71
2023/01/06 00:58:15;;;;;;;1.67;1.57;;;22.20;62.50;;;;;;4937241;29;20498;-71
2023/01/06 01:00:44;;;;;;;1.93;1.80;;;22.20;62.50;;;;;;4937530;29;20425;-71
2023/01/06 01:03:12;;;;;;;1.97;1.80;;;22.20;62.50;;;;;;4934374;29;20487;-71
2023/01/06 01:05:41;;;;;;;1.70;1.60;;;22.20;62.50;;;;;;4936543;29;20463;-71
2023/01/06 01:08:09;;;;;;;2.07;1.73;;;22.20;62.50;;;;;;4936954;29;20523;-71
2023/01/06 01:10:37;;;;;;;1.70;1.60;;;22.20;62.50;;;;;;4934297;29;20560;-71
2023/01/06 01:13:05;;;;;;;1.70;1.60;;;22.20;62.50;;;;;;4937019;29;20567;-71
2023/01/06 01:15:33;;;;;;;2.40;1.73;;;22.20;62.50;;;;;;4936937;29;20508;-71
2023/01/06 01:18:03;;;;;;;1.43;1.43;;;22.20;62.50;;;;;;4935680;29;20455;-71
2023/01/06 01:20:31;;;;;;;1.63;1.53;;;22.20;62.40;;;;;;4935949;29;20555;-71
2023/01/06 01:22:59;;;;;;;1.63;1.53;;;22.20;62.40;;;;;;4937067;29;20532;-71
2023/01/06 01:25:27;;;;;;;1.77;1.63;;;22.20;62.40;;;;;;4936576;29;20752;-71
2023/01/06 01:27:56;;;;;;;2.10;2.00;;;22.20;62.40;;;;;;4936482;29;20557;-71
2023/01/06 01:30:24;;;;;;;2.03;1.80;;;22.30;62.40;;;;;;4935596;29;20511;-71
2023/01/06 01:32:52;;;;;;;1.73;1.63;;;22.30;62.40;;;;;;4935909;29;20453;-72
2023/01/06 01:35:21;;;;;;;1.87;1.77;;;22.30;62.40;;;;;;4935387;29;21015;-72
2023/01/06 01:37:49;;;;;;;2.03;1.93;;;22.20;62.40;;;;;;4931399;29;20550;-71
2023/01/06 01:40:18;;;;;;;1.47;1.37;;;22.30;62.40;;;;;;4935889;29;20905;-71
2023/01/06 01:42:46;;;;;;;1.70;1.60;;;22.30;62.40;;;;;;4931873;29;20441;-70
2023/01/06 01:45:23;;;;;;;2.33;1.90;;;22.30;62.40;;;;;;4936443;29;20553;-71
2023/01/06 01:47:55;;;;;;;1.63;1.53;;;22.30;62.40;;;;;;4934241;29;20464;-71
2023/01/06 01:50:30;;;;;;;1.80;1.70;;;22.30;62.30;;;;;;4936810;29;20536;-71
2023/01/06 01:53:03;;;;;;;1.97;1.87;;;22.30;62.30;;;;;;4935576;29;20476;-71
2023/01/06 01:55:32;;;;;;;3.83;1.80;;;22.30;62.20;;;;;;4933411;29;20937;-71
2023/01/06 01:58:03;;;;;;;3.20;1.70;;;22.30;62.20;;;;;;4936172;29;20436;-70
2023/01/06 02:00:31;;;;;;;1.83;1.73;;;22.30;62.20;;;;;;4934669;29;20527;-70
2023/01/06 02:03:00;;;;;;;1.50;1.40;;;22.30;62.10;;;;;;4936441;29;20527;-71
2023/01/06 02:05:30;;;;;;;2.00;1.90;;;22.30;62.10;;;;;;4935934;29;21336;-71
2023/01/06 02:08:05;;;;;;;1.90;1.80;;;22.30;62.10;;;;;;4934756;29;20975;-71
2023/01/06 02:10:33;;;;;;;2.27;1.87;;;22.30;62.10;;;;;;4934032;29;20464;-70
2023/01/06 02:13:05;;;;;;;1.60;1.50;;;22.30;62.10;;;;;;4922837;29;20849;-72
2023/01/06 02:15:37;;;;;;;1.87;1.77;;;22.30;62.10;;;;;;4931643;29;20464;-71
2023/01/06 02:18:22;;;;;;;1.63;1.53;;;22.30;62.10;;;;;;4917169;29;20470;-72
2023/01/06 02:21:14;;;;;;;1.80;1.70;;;22.30;62.10;;;;;;4916750;29;20806;-70
2023/01/06 02:24:06;;;;;;;1.77;1.50;;;22.30;62.20;;;;;;4916829;29;20437;-72
2023/01/06 02:27:16;;;;;;;1.60;1.50;;;22.20;62.20;;;;;;4931611;29;20911;-72
2023/01/06 02:30:42;;;;;;;1.90;1.80;;;22.20;62.20;;;;;;4934557;29;20462;-73
2023/01/06 02:33:20;;;;;;;1.80;1.70;;;22.20;62.20;;;;;;4933176;29;20460;-71
2023/01/06 02:36:05;;;;;;;1.87;1.77;;;22.20;62.30;;;;;;4935071;29;20519;-71
2023/01/06 02:38:40;;;;;;;1.33;1.23;;;22.20;62.30;;;;;;4935117;29;21007;-71
2023/01/06 02:41:20;;;;;;;1.83;1.73;;;22.20;62.30;;;;;;4934054;29;20499;-71
2023/01/06 02:44:00;;;;;;;2.40;1.93;;;22.20;62.40;;;;;;4935367;29;20457;-72
2023/01/06 02:46:47;;;;;;;1.87;1.50;;;22.20;62.30;;;;;;4933799;29;20467;-72
2023/01/06 02:49:26;;;;;;;3.20;1.83;;;22.20;62.30;;;;;;4928177;29;20468;-71
2023/01/06 02:52:00;;;;;;;1.90;1.80;;;22.30;62.30;;;;;;4934112;29;20552;-71
2023/01/06 02:54:38;;;;;;;1.37;1.27;;;22.30;62.20;;;;;;4933572;29;20447;-71
2023/01/06 02:57:16;;;;;;;2.63;2.10;;;22.30;62.20;;;;;;4935606;29;20488;-71
2023/01/06 02:59:52;;;;;;;1.60;1.50;;;22.30;62.20;;;;;;4933956;29;20885;-72
2023/01/06 03:02:20;;;;;;;1.83;1.73;;;22.30;62.20;;;;;;4920219;29;20467;-71
2023/01/06 03:04:53;;;;;;;2.00;1.90;;;22.30;62.20;;;;;;4930156;29;20528;-71
2023/01/06 03:07:24;;;;;;;1.60;1.50;;;22.30;62.20;;;;;;4934466;29;20491;-73
2023/01/06 03:09:54;;;;;;;1.80;1.70;;;22.30;62.20;;;;;;4929751;29;20466;-71
2023/01/06 03:12:30;;;;;;;1.50;1.40;;;22.30;62.20;;;;;;4930347;29;20556;-71
2023/01/06 03:14:59;;;;;;;1.80;1.70;;;22.30;62.20;;;;;;4915046;29;20452;-71
2023/01/06 03:17:28;;;;;;;2.27;2.07;;;22.20;62.20;;;;;;4915185;29;20464;-71
2023/01/06 03:20:00;;;;;;;1.70;1.60;;;22.20;62.20;;;;;;4939231;29;20571;-71
2023/01/06 03:22:29;;;;;;;2.10;1.50;;;22.20;62.20;;;;;;4938343;29;20877;-73
2023/01/06 03:24:58;;;;;;;1.57;1.47;;;22.20;62.20;;;;;;4938584;29;20532;-71
2023/01/06 03:27:27;;;;;;;1.70;1.60;;;22.20;62.30;;;;;;4939705;29;20452;-71
2023/01/06 03:29:56;;;;;;;3.07;1.57;;;22.20;62.30;;;;;;4937331;29;20469;-71
2023/01/06 03:32:30;;;;;;;1.80;1.70;;;22.20;62.30;;;;;;4938623;29;20504;-73
2023/01/06 03:35:17;;;;;;;1.53;1.43;;;22.20;62.30;;;;;;4932007;29;20513;-72
2023/01/06 03:37:53;;;;;;;1.67;1.57;;;22.20;62.30;;;;;;4918759;29;20481;-72
2023/01/06 03:40:32;;;;;;;1.40;1.30;;;22.20;62.30;;;;;;4951638;29;20825;-71
2023/01/06 03:43:11;;;;;;;1.60;1.50;;;22.30;62.30;;;;;;4933642;29;20467;-71
2023/01/06 03:45:53;;;;;;;1.87;1.50;;;22.30;62.20;;;;;;4918754;29;20555;-70
2023/01/06 03:48:36;;;;;;;1.53;1.43;;;22.30;62.10;;;;;;4934432;29;20547;-71
2023/01/06 03:51:15;;;;;;;1.57;1.47;;;22.30;62.10;;;;;;4938518;29;20461;-71
2023/01/06 03:53:53;;;;;;;1.50;1.40;;;22.30;62.10;;;;;;4937317;29;20515;-71
2023/01/06 03:56:26;;;;;;;1.67;1.57;;;22.30;62.10;;;;;;4936640;29;20458;-71
2023/01/06 03:58:58;;;;;;;1.40;1.30;;;22.20;62.10;;;;;;4937037;29;20483;-71
2023/01/06 04:01:27;;;;;;;2.30;1.43;;;22.20;62.10;;;;;;4937468;29;20483;-71
2023/01/06 04:03:56;;;;;;;2.50;1.70;;;22.20;62.10;;;;;;4937177;29;20954;-71
2023/01/06 04:06:29;;;;;;;1.50;1.40;;;22.20;62.10;;;;;;4937028;29;20457;-71
2023/01/06 04:08:58;;;;;;;1.40;1.30;;;22.20;62.10;;;;;;4935671;29;20464;-72
2023/01/06 04:14:13;;;;;;;1.80;1.70;;;22.20;62.10;;;;;;4927851;29;20497;-71
2023/01/06 04:16:42;;;;;;;1.60;1.50;;;22.20;62.20;;;;;;4934122;29;20564;-71
2023/01/06 04:19:12;;;;;;;2.23;1.40;;;22.20;62.20;;;;;;4918990;29;20523;-69
2023/01/06 04:21:42;;;;;;;1.77;1.67;;;22.20;62.20;;;;;;4930923;29;20777;-69
2023/01/06 04:24:11;;;;;;;1.43;1.33;;;22.20;62.20;;;;;;4936714;29;20489;-70
2023/01/06 04:26:39;;;;;;;1.83;1.73;;;22.20;62.20;;;;;;4937521;29;20503;-70
2023/01/06 04:29:07;;;;;;;2.27;1.70;;;22.20;62.20;;;;;;4936479;29;20848;-70
2023/01/06 04:31:36;;;;;;;1.77;1.67;;;22.20;62.20;;;;;;4936720;29;20528;-70
2023/01/06 04:34:05;;;;;;;1.47;1.37;;;22.20;62.10;;;;;;4936465;29;20559;-69
2023/01/06 04:36:34;;;;;;;1.40;1.30;;;22.20;62.10;;;;;;4937184;29;20456;-69
2023/01/06 04:39:04;;;;;;;1.63;1.53;;;22.20;62.10;;;;;;4934979;29;20468;-69
2023/01/06 04:41:32;;;;;;;1.60;1.50;;;22.20;62.10;;;;;;4934846;29;20543;-71
2023/01/06 04:44:00;;;;;;;1.60;1.50;;;22.20;62.10;;;;;;4937498;29;20442;-69
2023/01/06 04:46:28;;;;;;;1.77;1.67;;;22.20;62.10;;;;;;4937214;29;20456;-70
2023/01/06 04:48:56;;;;;;;1.53;1.43;;;22.20;62.10;;;;;;4937241;29;20493;-69
2023/01/06 04:51:25;;;;;;;1.40;1.30;;;22.20;62.00;;;;;;4937990;29;20493;-70
2023/01/06 04:53:53;;;;;;;1.70;1.60;;;22.20;62.10;;;;;;4936991;29;20460;-69
2023/01/06 04:56:22;;;;;;;1.27;1.23;;;22.20;62.10;;;;;;4937637;29;20443;-69
2023/01/06 04:58:54;;;;;;;1.40;1.30;;;22.20;62.10;;;;;;4936544;29;20449;-70
2023/01/06 05:01:24;;;;;;;1.40;1.30;;;22.20;62.10;;;;;;4936405;29;20962;-70
2023/01/06 05:03:52;;;;;;;2.03;1.83;;;22.20;62.10;;;;;;4932507;29;20453;-69
2023/01/06 05:06:21;;;;;;;1.43;1.33;;;22.20;62.10;;;;;;4937047;29;20461;-69
2023/01/06 05:08:49;;;;;;;1.70;1.60;;;22.20;62.00;;;;;;4930966;29;20457;-70
2023/01/06 05:11:19;;;;;;;1.70;1.60;;;22.20;62.00;;;;;;4929033;29;20552;-70
2023/01/06 05:13:49;;;;;;;2.20;2.10;;;22.20;61.80;;;;;;4925448;29;20618;-70
2023/01/06 05:16:20;;;;;;;1.80;1.70;;;22.20;61.80;;;;;;4926919;29;20437;-70
2023/01/06 05:18:48;;;;;;;2.57;2.37;;;22.20;61.90;;;;;;4934531;29;21038;-71
2023/01/06 05:21:17;;;;;;;2.30;1.87;;;22.20;62.00;;;;;;4932757;29;20490;-72
2023/01/06 05:23:45;;;;;;;4.30;1.97;;;22.20;61.80;;;;;;4935902;29;20566;-70
2023/01/06 05:26:17;;;;;;;2.10;2.00;;;22.20;61.80;;;;;;4947919;29;21370;-71
2023/01/06 05:28:46;;;;;;;1.90;1.80;;;22.20;61.80;;;;;;4916933;29;20445;-69
2023/01/06 05:31:16;;;;;;;3.13;1.53;;;22.20;61.80;;;;;;4933664;29;20446;-69
2023/01/06 05:33:44;;;;;;;2.00;1.30;;;22.20;61.80;;;;;;4937081;29;20500;-70
2023/01/06 05:36:15;;;;;;;3.33;1.53;;;22.20;62.00;;;;;;4936295;29;20472;-72
2023/01/06 05:38:43;;;;;;;2.10;1.90;;;22.20;62.00;;;;;;4933810;29;20536;-72
2023/01/06 05:41:11;;;;;;;2.50;2.30;;;22.20;62.00;;;;;;4934181;29;20472;-70
2023/01/06 05:43:39;;;;;;;2.10;2.00;;;22.20;62.00;;;;;;4918045;29;20540;-70
2023/01/06 05:46:09;;;;;;;1.73;1.63;;;22.20;62.00;;;;;;4925821;29;20464;-69
2023/01/06 05:48:41;;;;;;;1.70;1.60;;;22.20;62.00;;;;;;4932826;29;20480;-71
2023/01/06 05:51:11;;;;;;;1.60;1.40;;;22.20;62.00;;;;;;4935474;29;20468;-71
2023/01/06 05:53:41;;;;;;;1.63;1.53;;;22.20;62.00;;;;;;4931092;29;20440;-70
2023/01/06 05:56:11;;;;;;;2.20;2.00;;;22.20;62.00;;;;;;4930840;29;20540;-70
2023/01/06 05:58:40;;;;;;;1.80;1.70;;;22.20;61.90;;;;;;4934364;29;20500;-71
2023/01/06 06:01:16;;;;;;;1.60;1.50;;;22.20;61.90;;;;;;4930585;29;20461;-71
2023/01/06 06:03:46;;;;;;;1.57;1.47;;;22.20;62.00;;;;;;4935975;29;20527;-70
2023/01/06 06:06:14;;;;;;;1.87;1.50;;;22.10;62.00;;;;;;4936285;29;20445;-70
2023/01/06 06:08:43;;;;;;;2.40;1.80;;;22.10;62.00;;;;;;4936152;29;20447;-70
2023/01/06 06:11:13;;;;;;;1.50;1.40;;;22.10;62.00;;;;;;4936077;29;20440;-70
2023/01/06 06:13:46;;;;;;;1.97;1.83;;;22.10;62.10;;;;;;4935387;29;20487;-70
2023/01/06 06:16:17;;;;;;;1.83;1.73;;;22.10;62.10;;;;;;4936439;29;20452;-69
2023/01/06 06:18:49;;;;;;;1.90;1.77;;;22.10;62.10;;;;;;4935614;29;20452;-69
2023/01/06 06:21:19;;;;;;;1.60;1.50;;;22.10;62.10;;;;;;4935903;29;20956;-71
2023/01/06 06:23:48;;;;;;;1.93;1.83;;;22.10;62.10;;;;;;4935663;29;20939;-70
2023/01/06 06:26:16;;;;;;;1.73;1.63;;;22.10;62.00;;;;;;4932154;29;20737;-70
2023/01/06 06:28:45;;;;;;;2.33;2.13;;;22.10;62.00;;;;;;4933949;29;20539;-69
2023/01/06 06:31:15;;;;;;;1.80;1.70;;;22.10;62.00;;;;;;4936526;29;20425;-71
2023/01/06 06:33:43;;;;;;;1.90;1.70;;;22.10;62.10;;;;;;4935634;29;20484;-70
2023/01/06 06:36:14;;;;;;;3.23;1.90;;;22.10;62.20;;;;;;4935474;29;20923;-69
2023/01/06 06:38:43;;;;;;;1.90;1.80;;;22.10;62.20;;;;;;4936086;29;20838;-71
2023/01/06 06:41:12;;;;;;;2.13;2.00;;;22.10;62.20;;;;;;4933609;29;20474;-69
2023/01/06 06:43:41;;;;;;;2.63;2.40;;;22.10;62.00;;;;;;4933651;29;20883;-70
2023/01/06 06:46:10;;;;;;;2.80;2.60;;;22.10;62.00;;;;;;4934343;29;20976;-70
2023/01/06 06:48:38;;;;;;;2.00;1.80;;;22.10;61.90;;;;;;4935351;29;20502;-70
2023/01/06 06:51:08;;;;;;;1.93;1.80;;;22.10;61.90;;;;;;4935572;29;20766;-70
2023/01/06 06:53:38;;;;;;;2.10;2.00;;;22.00;62.10;;;;;;4934718;29;20435;-70
2023/01/06 06:56:08;;;;;;;2.03;1.93;;;22.00;62.10;;;;;;4935175;29;20520;-69
2023/01/06 06:58:37;;;;;;;1.90;1.80;;;22.10;62.10;;;;;;4935141;29;20733;-69
2023/01/06 07:01:05;;;;;;;2.57;2.10;;;22.10;62.10;;;;;;4934958;29;20439;-70
2023/01/06 07:03:34;;;;;;;2.10;2.00;;;22.10;61.90;;;;;;4916130;29;20570;-70
2023/01/06 07:06:04;;;;;;;2.43;2.33;;;22.10;62.10;;;;;;4916841;29;20480;-70
2023/01/06 07:08:33;;;;;;;2.50;2.30;;;22.10;61.80;;;;;;4916127;29;20514;-70
2023/01/06 07:11:02;;;;;;;2.50;2.30;;;22.10;61.90;;;;;;4916181;29;20852;-70
2023/01/06 07:13:31;;;;;;;2.53;2.33;;;22.10;62.10;;;;;;4926130;29;20554;-71
2023/01/06 07:15:59;;;;;;;2.77;2.57;;;22.10;62.10;;;;;;4916463;29;20928;-70
2023/01/06 07:18:27;;;;;;;2.10;2.00;;;22.10;62.00;;;;;;4916070;29;20452;-71
2023/01/06 07:20:55;;;;;;;2.40;2.20;;;22.10;62.10;;;;;;4916609;29;20464;-70
2023/01/06 07:23:24;;;;;;;1.90;1.80;;;22.10;62.00;;;;;;4928238;29;20484;-72
2023/01/06 07:25:53;;;;;;;2.30;2.20;;;22.10;62.10;;;;;;4933180;29;20464;-72
2023/01/06 07:28:23;;;;;;;4.13;2.30;;;22.10;62.10;;;;;;4934364;29;20456;-71
2023/01/06 07:30:51;;;;;;;1.80;1.70;;;22.10;62.10;;;;;;4921959;29;20476;-70
2023/01/06 07:33:20;;;;;;;2.10;1.90;;;22.10;62.10;;;;;;4933093;29;20452;-71
2023/01/06 07:35:51;;;;;;;2.10;1.90;;;22.10;62.10;;;;;;4925699;29;20523;-70
2023/01/06 07:38:20;;;;;;;3.30;2.90;;;22.10;62.10;;;;;;4934525;29;20444;-71
2023/01/06 07:40:48;;;;;;;2.00;1.77;;;22.10;62.10;;;;;;4932600;29;20701;-70
2023/01/06 07:43:17;;;;;;;2.20;2.10;;;22.10;62.10;;;;;;4933903;29;20504;-70
2023/01/06 07:45:48;;;;;;;1.90;1.80;;;22.10;62.10;;;;;;4933007;29;20518;-70
2023/01/06 07:48:16;;;;;;;2.40;2.30;;;22.10;62.10;;;;;;4927757;29;20457;-70
2023/01/06 07:50:44;;;;;;;2.50;2.30;;;22.10;62.10;;;;;;4931333;29;20460;-70
2023/01/06 07:53:13;;;;;;;2.57;2.37;;;22.10;62.10;;;;;;4928563;29;20539;-70
2023/01/06 07:55:41;;;;;;;3.00;2.43;;;22.10;62.10;;;;;;4933283;29;20467;-70
2023/01/06 07:58:10;;;;;;;1.90;1.80;;;22.10;62.10;;;;;;4930340;29;20514;-70
2023/01/06 08:00:38;;;;;;;2.07;1.97;;;22.10;62.00;;;;;;4929332;29;20902;-72
2023/01/06 08:03:08;;;;;;;2.30;2.10;;;22.10;62.00;;;;;;4930516;29;20954;-70
2023/01/06 08:05:37;;;;;;;2.37;2.17;;;22.10;62.00;;;;;;4935393;29;20464;-70
2023/01/06 08:08:06;;;;;;;2.63;2.43;;;22.10;62.00;;;;;;4935205;29;20542;-70
2023/01/06 08:10:34;;;;;;;2.07;1.93;;;22.10;62.10;;;;;;4930065;29;20460;-71
2023/01/06 08:13:02;;;;;;;2.20;2.10;;;22.10;62.00;;;;;;4931525;29;20500;-70
2023/01/06 08:15:30;;;;;;;2.30;2.10;;;22.10;62.00;;;;;;4934544;29;20456;-70
2023/01/06 08:17:59;;;;;;;1.97;1.87;;;22.10;62.00;;;;;;4932724;29;20872;-70
2023/01/06 08:20:28;;;;;;;2.33;2.13;;;22.10;62.00;;;;;;4934982;29;20538;-70
2023/01/06 08:22:57;;;;;;;2.40;2.20;;;22.10;62.00;;;;;;4930853;29;20512;-70
2023/01/06 08:25:26;;;;;;;3.47;2.40;;;22.10;62.00;;;;;;4936792;29;20499;-71
2023/01/06 08:27:55;;;;;;;2.57;2.37;;;22.10;62.00;;;;;;4934943;29;21148;-71
2023/01/06 08:30:23;;;;;;;2.10;2.00;;;22.10;62.00;;;;;;4933069;29;20879;-71
2023/01/06 08:32:51;;;;;;;2.63;2.43;;;22.10;62.10;;;;;;4931765;29;20455;-74
2023/01/06 08:35:19;;;;;;;2.23;2.13;;;22.10;62.00;;;;;;4933251;29;20506;-70
2023/01/06 08:37:49;;;;;;;2.33;2.20;;;22.10;62.00;;;;;;4933273;29;21290;-70
2023/01/06 08:40:18;;;;;;;2.40;2.00;;;22.10;62.10;;;;;;4936667;29;20846;-70
2023/01/06 08:42:46;;;;;;;2.23;2.13;;;22.10;62.10;;;;;;4934339;29;20460;-72
2023/01/06 08:45:14;;;;;;;2.60;2.40;;;22.10;62.10;;;;;;4935158;29;20527;-70
2023/01/06 08:47:42;;;;;;;2.10;2.00;;;22.10;62.10;;;;;;4928987;29;20462;-71
2023/01/06 08:50:10;;;;;;;2.40;2.20;;;22.10;62.10;;;;;;4934346;29;20469;-70
2023/01/06 08:52:39;;;;;;;2.10;1.90;;;22.10;62.10;;;;;;4929651;29;20571;-70
2023/01/06 08:55:08;;;;;;;2.70;2.50;;;22.10;62.10;;;;;;4932413;29;20457;-72
2023/01/06 08:57:37;;;;;;;3.07;2.87;;;22.10;62.10;;;;;;4931256;29;20487;-72
2023/01/06 09:00:06;;;;;;;2.80;2.60;;;22.10;61.90;;;;;;4932335;29;20459;-70
2023/01/06 09:02:35;;;;;;;2.60;2.27;;;22.10;61.90;;;;;;4934646;29;20444;-71
2023/01/06 09:05:04;;;;;;;2.50;2.30;;;22.10;61.80;;;;;;4935278;29;20477;-70
2023/01/06 09:07:33;;;;;;;2.33;2.20;;;22.00;61.80;;;;;;4931083;29;20470;-70
2023/01/06 09:10:01;;;;;;;1.87;1.77;;;22.00;61.80;;;;;;4929855;29;20562;-70
2023/01/06 09:12:30;;;;;;;3.20;2.90;;;22.00;61.80;;;;;;4930254;29;20491;-72
2023/01/06 09:14:58;;;;;;;2.77;2.13;;;22.00;61.80;;;;;;4930289;29;20468;-71
2023/01/06 09:17:27;;;;;;;3.60;2.70;;;22.00;61.80;;;;;;4929742;29;20503;-70
2023/01/06 09:19:55;;;;;;;2.57;2.37;;;22.00;61.80;;;;;;4929100;29;20564;-71
2023/01/06 09:22:23;;;;;;;2.73;2.53;;;22.00;61.80;;;;;;4930443;29;20455;-72
2023/01/06 09:24:51;;;;;;;2.60;2.40;;;22.00;61.70;;;;;;4929852;29;20522;-70
2023/01/06 09:27:19;;;;;;;3.03;2.10;;;22.00;61.60;;;;;;4924125;29;20872;-71
2023/01/06 09:29:51;;;;;;;2.43;2.23;;;22.00;61.50;;;;;;4921222;29;20468;-71
2023/01/06 09:32:19;;;;;;;2.90;2.40;;;22.00;61.50;;;;;;4928249;29;20503;-71
2023/01/06 09:34:48;;;;;;;2.70;2.50;;;22.00;61.50;;;;;;4929053;29;20446;-70
2023/01/06 09:37:16;;;;;;;2.47;2.27;;;22.00;61.30;;;;;;4933557;29;20788;-70
2023/01/06 09:39:44;;;;;;;3.67;3.37;;;22.00;61.30;;;;;;4929492;29;20456;-71
2023/01/06 09:42:30;;;;;;;3.70;2.83;;;22.00;61.30;;;;;;4932721;29;20504;-71
2023/01/06 09:45:04;;;;;;;3.37;3.07;;;22.00;61.20;;;;;;4929714;29;20567;-70
2023/01/06 09:47:37;;;;;;;6.27;3.10;;;22.00;61.20;;;;;;4924739;29;20475;-70
2023/01/06 09:50:10;;;;;;;4.13;3.60;;;22.00;61.30;;;;;;4925481;29;20460;-70
2023/01/06 09:52:41;;;;;;;5.63;3.77;;;22.00;62.00;;;;;;4931595;29;20953;-71
2023/01/06 09:55:15;;;;;;;4.87;3.37;;;22.00;62.70;;;;;;4931868;29;20480;-71
2023/01/06 09:57:47;;;;;;;5.40;3.03;;;22.00;62.90;;;;;;4929443;29;20955;-71
2023/01/06 10:00:27;;;;;;;3.53;3.20;;;22.00;62.90;;;;;;4934159;29;20947;-71
2023/01/06 10:02:56;;;;;;;7.10;3.60;;;22.00;62.80;;;;;;4933716;29;20480;-72
2023/01/06 10:05:31;;;;;;;3.30;2.70;;;22.00;62.60;;;;;;4931543;29;20500;-76
2023/01/06 10:08:06;;;;;;;3.67;3.37;;;22.00;62.60;;;;;;4931766;29;20534;-76
2023/01/06 10:10:42;;;;;;;6.17;3.50;;;22.00;62.60;;;;;;4925879;29;20546;-75
2023/01/06 10:13:27;;;;;;;3.77;3.20;;;21.90;62.50;;;;;;4929967;29;20866;-74
2023/01/06 10:16:04;;;;;;;3.07;2.77;;;21.90;62.40;;;;;;4929840;29;20461;-75
2023/01/06 10:18:41;;;;;;;2.93;2.63;;;21.90;62.50;;;;;;4926729;29;20507;-75
2023/01/06 10:21:17;;;;;;;2.73;2.53;;;21.90;62.40;;;;;;4932196;29;20531;-80
2023/01/06 10:24:07;;;;;;;2.80;2.60;;;21.90;62.50;;;;;;4930819;29;20515;-75
2023/01/06 10:26:42;;;;;;;4.50;3.20;;;21.90;62.40;;;;;;4927320;29;20569;-75
2023/01/06 10:29:14;;;;;;;4.60;3.03;;;21.90;62.10;;;;;;4928682;29;20471;-75
2023/01/06 10:31:46;;;;;;;4.30;2.70;;;21.90;62.10;;;;;;4935492;29;20950;-75
2023/01/06 10:34:20;;;;;;;2.80;2.50;;;21.90;62.00;;;;;;4931714;29;20456;-75
2023/01/06 10:36:53;;;;;;;2.97;2.77;;;22.00;62.10;;;;;;4933466;29;21490;-76
2023/01/06 10:39:24;;;;;;;2.80;2.60;;;22.00;62.00;;;;;;4933390;29;20451;-75
2023/01/06 10:44:44;;;;;;;3.83;2.87;;;22.00;62.00;;;;;;4928678;29;20484;-76
2023/01/06 10:47:22;;;;;;;3.60;2.53;;;22.00;62.10;;;;;;4933995;29;20507;-76
2023/01/06 10:49:51;;;;;;;3.37;3.07;;;22.10;62.20;;;;;;4930829;29;20869;-76
2023/01/06 10:52:20;;;;;;;3.40;2.80;;;22.10;62.30;;;;;;4931601;29;20468;-71
2023/01/06 10:54:52;;;;;;;3.30;3.00;;;22.20;62.50;;;;;;4932101;29;20570;-71
2023/01/06 10:57:23;;;;;;;4.80;4.40;;;22.20;62.40;;;;;;4926837;29;20457;-71
2023/01/06 11:00:14;;;;;;;3.90;3.47;;;22.20;62.60;;;;;;4925459;29;20452;-70
2023/01/06 11:02:49;;;;;;;2.97;2.77;;;22.30;62.80;;;;;;4918573;29;20473;-69
2023/01/06 11:05:19;;;;;;;6.33;3.30;;;22.30;62.70;;;;;;4919377;29;20476;-73
2023/01/06 11:07:59;;;;;;;6.10;4.40;;;22.40;62.80;;;;;;4922291;29;20458;-69
2023/01/06 11:10:37;;;;;;;3.60;2.87;;;22.40;62.90;;;;;;4929320;29;20540;-72
2023/01/06 11:13:17;;;;;;;4.80;3.20;;;22.40;62.90;;;;;;4923458;29;21003;-69
2023/01/06 11:15:46;;;;;;;5.67;3.80;;;22.40;63.00;;;;;;4922549;29;20469;-72
2023/01/06 11:18:22;;;;;;;7.10;3.90;;;22.40;63.10;;;;;;4923012;29;20976;-74
2023/01/06 11:21:08;;;;;;;6.70;4.00;;;22.40;63.20;;;;;;4927855;29;20472;-71
2023/01/06 11:23:50;;;;;;;4.60;3.80;;;22.30;63.30;;;;;;4924818;29;20769;-70
2023/01/06 11:26:21;;;;;;;4.90;3.40;;;22.30;63.50;;;;;;4920840;29;20972;-73
2023/01/06 11:28:53;;;;;;;4.07;3.50;;;22.30;63.50;;;;;;4921991;29;20957;-77
2023/01/06 11:31:24;;;;;;;5.30;4.80;;;22.30;63.40;;;;;;4925795;29;20985;-77
2023/01/06 11:33:56;;;;;;;6.03;3.63;;;22.30;63.40;;;;;;4923850;29;20453;-78
2023/01/06 11:36:26;;;;;;;7.83;4.10;;;22.30;63.70;;;;;;4926523;29;20502;-77
2023/01/06 11:38:58;;;;;;;4.87;4.03;;;22.40;63.10;;;;;;4931379;29;20465;-77
2023/01/06 11:41:30;;;;;;;6.43;3.60;;;22.40;62.90;;;;;;4936611;29;20502;-78
2023/01/06 11:44:08;;;;;;;4.50;3.20;;;22.40;62.60;;;;;;4937681;29;20920;-77
2023/01/06 11:46:40;;;;;;;5.60;3.80;;;22.40;62.80;;;;;;4937419;29;20503;-75
2023/01/06 11:49:14;;;;;;;8.30;4.50;;;22.40;62.60;;;;;;4935237;29;21134;-76
2023/01/06 11:51:50;;;;;;;5.80;3.67;;;22.40;62.80;;;;;;4936573;29;20452;-75
2023/01/06 11:54:31;;;;;;;7.13;4.60;;;22.40;63.00;;;;;;4934718;29;20468;-75
2023/01/06 11:57:16;;;;;;;5.40;4.03;;;22.40;63.20;;;;;;4932195;29;20488;-74
2023/01/06 12:00:05;;;;;;;4.77;3.80;;;22.40;63.20;;;;;;4935805;29;20456;-74
2023/01/06 12:02:45;;;;;;;4.30;3.80;;;22.40;63.40;;;;;;4933644;29;20448;-74
2023/01/06 12:05:25;;;;;;;5.47;4.03;;;22.40;63.30;;;;;;4934000;29;20582;-75
2023/01/06 12:07:57;;;;;;;5.30;4.50;;;22.40;63.30;;;;;;4931241;29;20596;-75
2023/01/06 12:10:30;;;;;;;6.03;4.50;;;22.50;63.20;;;;;;4919525;29;20769;-74
2023/01/06 12:12:59;;;;;;;5.23;3.90;;;22.60;63.10;;;;;;4926189;29;20501;-75
2023/01/06 12:15:30;;;;;;;4.20;3.83;;;22.60;63.00;;;;;;4933623;29;20555;-71
2023/01/06 12:18:03;;;;;;;4.57;3.70;;;22.60;62.90;;;;;;4933431;29;20483;-77
2023/01/06 12:20:35;;;;;;;5.93;4.57;;;22.60;62.80;;;;;;4934160;29;20928;-76
2023/01/06 12:23:06;;;;;;;5.77;5.17;;;22.60;62.90;;;;;;4927662;29;20515;-77
2023/01/06 12:25:39;;;;;;;4.07;3.73;;;22.60;62.90;;;;;;4932403;29;20563;-77
2023/01/06 12:28:14;;;;;;;6.53;5.30;;;22.60;62.90;;;;;;4931233;29;20523;-76
2023/01/06 12:30:53;;;;;;;4.53;4.13;;;22.60;62.90;;;;;;4932953;29;20884;-76
2023/01/06 12:33:25;;;;;;;6.23;4.90;;;22.50;62.90;;;;;;4934085;29;20516;-76
2023/01/06 12:35:59;;;;;;;6.10;5.50;;;22.50;62.90;;;;;;4934884;29;20540;-77
2023/01/06 12:38:39;;;;;;;4.80;4.10;;;22.50;63.10;;;;;;4932303;29;20448;-77
2023/01/06 12:41:16;;;;;;;6.07;5.57;;;22.40;63.10;;;;;;4931541;29;20480;-71
2023/01/06 12:43:53;;;;;;;4.60;4.20;;;22.40;63.10;;;;;;4936008;29;20479;-72
2023/01/06 12:46:29;;;;;;;4.93;4.40;;;22.40;63.20;;;;;;4931401;29;20564;-73
2023/01/06 12:48:59;;;;;;;5.90;4.83;;;22.40;63.40;;;;;;4926204;29;20459;-72
2023/01/06 12:51:35;;;;;;;4.70;4.23;;;22.30;63.40;;;;;;4926395;29;20480;-74
2023/01/06 12:54:15;;;;;;;5.60;5.20;;;22.30;63.60;;;;;;4924885;29;20488;-72
2023/01/06 12:57:01;;;;;;;5.37;4.77;;;22.30;63.70;;;;;;4928765;29;20535;-72
2023/01/06 12:59:37;;;;;;;7.30;4.87;;;22.30;63.70;;;;;;4924463;29;20521;-72
2023/01/06 13:02:19;;;;;;;5.10;4.60;;;22.30;63.80;;;;;;4930231;29;20543;-70
2023/01/06 13:05:11;;;;;;;6.50;4.77;;;22.30;63.80;;;;;;4935867;29;20447;-71
2023/01/06 13:07:48;;;;;;;5.67;5.23;;;22.30;63.80;;;;;;4929477;29;20499;-70
2023/01/06 13:10:24;;;;;;;4.63;4.00;;;22.30;63.90;;;;;;4924985;29;20552;-75
2023/01/06 13:13:31;;;;;;;5.13;4.63;;;22.30;63.90;;;;;;4922098;29;20878;-69
2023/01/06 13:16:04;;;;;;;5.50;4.37;;;22.30;63.80;;;;;;4902487;29;20472;-72
2023/01/06 13:18:39;;;;;;;6.00;5.40;;;22.30;63.90;;;;;;4930592;29;20932;-70